sensor_id;sensor_type;location;lat;lon;timestamp;pressure;altitude;pressure_sealevel;temperature;humidity
26112;BME280;13829;48.990;8.346;2023-07-28T00:02:07;99673.16;;;19.94;100.00
26112;BME280;13829;48.990;8.346;2023-07-28T00:04:35;99675.16;;;19.89;100.00
26112;BME280;13829;48.990;8.346;2023-07-28T00:07:03;99674.28;;;19.88;100.00
26112;BME280;13829;48.990;8.346;2023-07-28T00:09:31;99675.16;;;19.89;100.00
26112;BME280;13829;48.990;8.346;2023-07-28T00:11:58;99669.94;;;19.86;100.00
26112;BME280;13829;48.990;8.346;2023-07-28T00:14:27;99673.56;;;19.85;100.00
26112;BME280;13829;48.990;8.346;2023-07-28T00:16:55;99674.53;;;19.82;100.00
26112;BME280;13829;48.990;8.346;2023-07-28T00:19:22;99664.84;;;19.80;100.00
26112;BME280;13829;48.990;8.346;2023-07-28T00:21:50;99662.34;;;19.77;100.00
26112;BME280;13829;48.990;8.346;2023-07-28T00:24:18;99660.50;;;19.77;100.00
26112;BME280;13829;48.990;8.346;2023-07-28T00:26:46;99656.06;;;19.78;100.00
26112;BME280;13829;48.990;8.346;2023-07-28T00:29:13;99654.31;;;19.77;100.00
26112;BME280;13829;48.990;8.346;2023-07-28T00:31:40;99662.53;;;19.72;100.00
26112;BME280;13829;48.990;8.346;2023-07-28T00:34:07;99667.81;;;19.74;100.00
26112;BME280;13829;48.990;8.346;2023-07-28T00:36:34;99658.94;;;19.73;100.00
26112;BME280;13829;48.990;8.346;2023-07-28T00:39:01;99651.13;;;19.68;100.00
26112;BME280;13829;48.990;8.346;2023-07-28T00:41:28;99661.13;;;19.63;100.00
26112;BME280;13829;48.990;8.346;2023-07-28T00:43:56;99656.59;;;19.65;100.00
26112;BME280;13829;48.990;8.346;2023-07-28T00:46:23;99657.75;;;19.60;100.00
26112;BME280;13829;48.990;8.346;2023-07-28T00:48:51;99660.22;;;19.64;100.00
26112;BME280;13829;48.990;8.346;2023-07-28T00:51:18;99652.28;;;19.63;100.00
26112;BME280;13829;48.990;8.346;2023-07-28T00:53:45;99658.44;;;19.65;100.00
26112;BME280;13829;48.990;8.346;2023-07-28T00:56:13;99653.13;;;19.63;100.00
26112;BME280;13829;48.990;8.346;2023-07-28T00:58:40;99653.28;;;19.60;100.00
26112;BME280;13829;48.990;8.346;2023-07-28T01:01:09;99648.09;;;19.57;100.00
26112;BME280;13829;48.990;8.346;2023-07-28T01:03:36;99649.97;;;19.55;100.00
26112;BME280;13829;48.990;8.346;2023-07-28T01:06:16;99655.13;;;19.58;100.00
26112;BME280;13829;48.990;8.346;2023-07-28T01:08:55;99659.16;;;19.48;100.00
26112;BME280;13829;48.990;8.346;2023-07-28T01:11:23;99656.75;;;19.42;100.00
26112;BME280;13829;48.990;8.346;2023-07-28T01:13:50;99654.75;;;19.47;100.00
26112;BME280;13829;48.990;8.346;2023-07-28T01:16:18;99651.41;;;19.42;100.00
26112;BME280;13829;48.990;8.346;2023-07-28T01:18:45;99661.16;;;19.43;100.00
26112;BME280;13829;48.990;8.346;2023-07-28T01:21:21;99663.41;;;19.52;100.00
26112;BME280;13829;48.990;8.346;2023-07-28T01:24:01;99661.03;;;19.46;100.00
26112;BME280;13829;48.990;8.346;2023-07-28T01:26:35;99664.91;;;19.38;100.00
26112;BME280;13829;48.990;8.346;2023-07-28T01:29:03;99659.81;;;19.32;100.00
26112;BME280;13829;48.990;8.346;2023-07-28T01:31:30;99660.75;;;19.31;100.00
26112;BME280;13829;48.990;8.346;2023-07-28T01:33:58;99659.00;;;19.30;100.00
26112;BME280;13829;48.990;8.346;2023-07-28T01:36:25;99660.81;;;19.30;100.00
26112;BME280;13829;48.990;8.346;2023-07-28T01:38:52;99659.81;;;19.32;100.00
26112;BME280;13829;48.990;8.346;2023-07-28T01:41:19;99649.44;;;19.26;100.00
26112;BME280;13829;48.990;8.346;2023-07-28T01:43:48;99650.16;;;19.30;100.00
26112;BME280;13829;48.990;8.346;2023-07-28T01:46:14;99653.84;;;19.27;100.00
26112;BME280;13829;48.990;8.346;2023-07-28T01:48:41;99651.44;;;19.21;100.00
26112;BME280;13829;48.990;8.346;2023-07-28T01:51:08;99655.81;;;19.22;100.00
26112;BME280;13829;48.990;8.346;2023-07-28T01:53:35;99655.03;;;19.20;100.00
26112;BME280;13829;48.990;8.346;2023-07-28T01:56:02;99654.22;;;19.18;100.00
26112;BME280;13829;48.990;8.346;2023-07-28T01:58:29;99665.69;;;19.20;100.00
26112;BME280;13829;48.990;8.346;2023-07-28T02:00:58;99664.81;;;19.19;100.00
26112;BME280;13829;48.990;8.346;2023-07-28T02:03:25;99669.41;;;19.16;100.00
26112;BME280;13829;48.990;8.346;2023-07-28T02:05:51;99667.56;;;19.18;100.00
26112;BME280;13829;48.990;8.346;2023-07-28T02:08:18;99667.56;;;19.18;100.00
26112;BME280;13829;48.990;8.346;2023-07-28T02:10:45;99655.94;;;19.19;100.00
26112;BME280;13829;48.990;8.346;2023-07-28T02:13:12;99660.59;;;19.14;100.00
26112;BME280;13829;48.990;8.346;2023-07-28T02:15:39;99659.00;;;19.10;100.00
26112;BME280;13829;48.990;8.346;2023-07-28T02:18:07;99659.16;;;19.06;100.00
26112;BME280;13829;48.990;8.346;2023-07-28T02:20:34;99666.19;;;19.07;100.00
26112;BME280;13829;48.990;8.346;2023-07-28T02:23:01;99659.16;;;19.06;100.00
26112;BME280;13829;48.990;8.346;2023-07-28T02:25:28;99664.53;;;19.05;100.00
26112;BME280;13829;48.990;8.346;2023-07-28T02:27:55;99678.97;;;18.99;100.00
26112;BME280;13829;48.990;8.346;2023-07-28T02:30:23;99685.31;;;18.97;100.00
26112;BME280;13829;48.990;8.346;2023-07-28T02:32:50;99682.56;;;18.98;100.00
26112;BME280;13829;48.990;8.346;2023-07-28T02:35:18;99673.66;;;18.99;100.00
26112;BME280;13829;48.990;8.346;2023-07-28T02:37:45;99675.47;;;18.99;100.00
26112;BME280;13829;48.990;8.346;2023-07-28T02:40:12;99672.91;;;18.96;100.00
26112;BME280;13829;48.990;8.346;2023-07-28T02:42:39;99672.16;;;18.92;100.00
26112;BME280;13829;48.990;8.346;2023-07-28T02:45:07;99676.50;;;18.95;100.00
26112;BME280;13829;48.990;8.346;2023-07-28T02:47:35;99687.09;;;18.96;100.00
26112;BME280;13829;48.990;8.346;2023-07-28T02:50:03;99702.22;;;18.96;100.00
26112;BME280;13829;48.990;8.346;2023-07-28T02:52:31;99702.28;;;18.94;100.00
26112;BME280;13829;48.990;8.346;2023-07-28T02:54:58;99709.28;;;18.97;100.00
26112;BME280;13829;48.990;8.346;2023-07-28T02:57:25;99699.69;;;18.93;100.00
26112;BME280;13829;48.990;8.346;2023-07-28T02:59:52;99694.44;;;18.89;100.00
26112;BME280;13829;48.990;8.346;2023-07-28T03:02:19;99703.28;;;18.92;100.00
26112;BME280;13829;48.990;8.346;2023-07-28T03:04:46;99708.53;;;18.93;100.00
26112;BME280;13829;48.990;8.346;2023-07-28T03:07:13;99698.03;;;18.90;100.00
26112;BME280;13829;48.990;8.346;2023-07-28T03:09:41;99688.16;;;18.92;100.00
26112;BME280;13829;48.990;8.346;2023-07-28T03:12:09;99709.56;;;18.89;100.00
26112;BME280;13829;48.990;8.346;2023-07-28T03:14:36;99706.88;;;18.90;100.00
26112;BME280;13829;48.990;8.346;2023-07-28T03:17:03;99704.34;;;18.86;100.00
26112;BME280;13829;48.990;8.346;2023-07-28T03:19:30;99708.75;;;18.87;100.00
26112;BME280;13829;48.990;8.346;2023-07-28T03:21:57;99706.03;;;18.90;100.00
26112;BME280;13829;48.990;8.346;2023-07-28T03:24:24;99706.09;;;18.87;100.00
26112;BME280;13829;48.990;8.346;2023-07-28T03:26:52;99711.34;;;18.90;100.00
26112;BME280;13829;48.990;8.346;2023-07-28T03:29:19;99704.31;;;19.10;100.00
26112;BME280;13829;48.990;8.346;2023-07-28T03:31:46;99709.50;;;19.13;100.00
26112;BME280;13829;48.990;8.346;2023-07-28T03:34:13;99715.78;;;19.12;100.00
26112;BME280;13829;48.990;8.346;2023-07-28T03:36:40;99722.22;;;19.06;100.00
26112;BME280;13829;48.990;8.346;2023-07-28T03:39:07;99722.13;;;19.09;100.00
26112;BME280;13829;48.990;8.346;2023-07-28T03:41:34;99721.38;;;19.05;100.00
26112;BME280;13829;48.990;8.346;2023-07-28T03:44:02;99720.94;;;18.94;100.00
26112;BME280;13829;48.990;8.346;2023-07-28T03:46:29;99719.13;;;18.95;100.00
26112;BME280;13829;48.990;8.346;2023-07-28T03:48:56;99719.34;;;18.88;100.00
26112;BME280;13829;48.990;8.346;2023-07-28T03:51:24;99706.56;;;18.98;100.00
26112;BME280;13829;48.990;8.346;2023-07-28T03:53:51;99701.66;;;19.10;100.00
26112;BME280;13829;48.990;8.346;2023-07-28T03:56:17;99709.41;;;18.94;100.00
26112;BME280;13829;48.990;8.346;2023-07-28T03:58:44;99707.72;;;18.91;100.00
26112;BME280;13829;48.990;8.346;2023-07-28T04:01:13;99712.13;;;18.92;100.00
26112;BME280;13829;48.990;8.346;2023-07-28T04:03:39;99718.56;;;18.86;100.00
26112;BME280;13829;48.990;8.346;2023-07-28T04:06:11;99724.06;;;18.82;100.00
26112;BME280;13829;48.990;8.346;2023-07-28T04:08:38;99725.13;;;18.78;100.00
26112;BME280;13829;48.990;8.346;2023-07-28T04:11:05;99719.66;;;18.81;100.00
26112;BME280;13829;48.990;8.346;2023-07-28T04:13:33;99718.88;;;18.79;100.00
26112;BME280;13829;48.990;8.346;2023-07-28T04:16:00;99723.25;;;18.80;100.00
26112;BME280;13829;48.990;8.346;2023-07-28T04:18:28;99728.47;;;18.83;100.00
26112;BME280;13829;48.990;8.346;2023-07-28T04:20:55;99730.00;;;18.88;100.00
26112;BME280;13829;48.990;8.346;2023-07-28T04:23:22;99720.94;;;18.94;100.00
26112;BME280;13829;48.990;8.346;2023-07-28T04:25:49;99728.94;;;18.94;100.00
26112;BME280;13829;48.990;8.346;2023-07-28T04:28:16;99725.47;;;18.92;100.00
26112;BME280;13829;48.990;8.346;2023-07-28T04:30:43;99724.53;;;18.93;100.00
26112;BME280;13829;48.990;8.346;2023-07-28T04:33:10;99718.38;;;18.91;100.00
26112;BME280;13829;48.990;8.346;2023-07-28T04:35:38;99713.06;;;18.91;100.00
26112;BME280;13829;48.990;8.346;2023-07-28T04:38:05;99718.38;;;18.91;100.00
26112;BME280;13829;48.990;8.346;2023-07-28T04:40:32;99726.38;;;18.91;100.00
26112;BME280;13829;48.990;8.346;2023-07-28T04:42:59;99721.88;;;18.93;100.00
26112;BME280;13829;48.990;8.346;2023-07-28T04:45:26;99729.78;;;18.95;100.00
26112;BME280;13829;48.990;8.346;2023-07-28T04:47:52;99734.13;;;18.97;100.00
26112;BME280;13829;48.990;8.346;2023-07-28T04:50:19;99731.78;;;19.12;100.00
26112;BME280;13829;48.990;8.346;2023-07-28T04:52:48;99741.09;;;19.01;100.00
26112;BME280;13829;48.990;8.346;2023-07-28T04:55:15;99744.59;;;19.02;100.00
26112;BME280;13829;48.990;8.346;2023-07-28T04:57:41;99743.63;;;19.04;100.00
26112;BME280;13829;48.990;8.346;2023-07-28T05:00:10;99740.34;;;18.98;100.00
26112;BME280;13829;48.990;8.346;2023-07-28T05:02:37;99740.38;;;18.96;100.00
26112;BME280;13829;48.990;8.346;2023-07-28T05:05:04;99741.19;;;18.98;100.00
26112;BME280;13829;48.990;8.346;2023-07-28T05:07:31;99750.69;;;19.05;100.00
26112;BME280;13829;48.990;8.346;2023-07-28T05:09:59;99749.09;;;19.01;100.00
26112;BME280;13829;48.990;8.346;2023-07-28T05:12:26;99748.78;;;19.09;100.00
26112;BME280;13829;48.990;8.346;2023-07-28T05:14:54;99752.03;;;19.16;100.00
26112;BME280;13829;48.990;8.346;2023-07-28T05:17:21;99749.91;;;19.24;100.00
26112;BME280;13829;48.990;8.346;2023-07-28T05:19:49;99746.53;;;19.20;100.00
26112;BME280;13829;48.990;8.346;2023-07-28T05:22:16;99757.06;;;19.23;100.00
26112;BME280;13829;48.990;8.346;2023-07-28T05:24:44;99753.47;;;19.25;100.00
26112;BME280;13829;48.990;8.346;2023-07-28T05:27:12;99749.25;;;19.19;100.00
26112;BME280;13829;48.990;8.346;2023-07-28T05:29:39;99761.22;;;19.09;100.00
26112;BME280;13829;48.990;8.346;2023-07-28T05:32:07;99760.88;;;19.16;100.00
26112;BME280;13829;48.990;8.346;2023-07-28T05:34:34;99766.03;;;19.21;100.00
26112;BME280;13829;48.990;8.346;2023-07-28T05:37:01;99765.22;;;19.19;100.00
26112;BME280;13829;48.990;8.346;2023-07-28T05:39:28;99759.03;;;19.18;100.00
26112;BME280;13829;48.990;8.346;2023-07-28T05:41:55;99770.44;;;19.22;100.00
26112;BME280;13829;48.990;8.346;2023-07-28T05:44:23;99767.97;;;19.17;100.00
26112;BME280;13829;48.990;8.346;2023-07-28T05:46:50;99774.84;;;19.23;100.00
26112;BME280;13829;48.990;8.346;2023-07-28T05:49:17;99779.97;;;19.28;100.00
26112;BME280;13829;48.990;8.346;2023-07-28T05:51:44;99788.78;;;19.30;100.00
26112;BME280;13829;48.990;8.346;2023-07-28T05:54:12;99787.31;;;19.22;100.00
26112;BME280;13829;48.990;8.346;2023-07-28T05:56:40;99790.09;;;19.19;100.00
26112;BME280;13829;48.990;8.346;2023-07-28T05:59:07;99798.47;;;19.32;100.00
26112;BME280;13829;48.990;8.346;2023-07-28T06:01:35;99794.44;;;19.22;100.00
26112;BME280;13829;48.990;8.346;2023-07-28T06:04:03;99788.28;;;19.20;100.00
26112;BME280;13829;48.990;8.346;2023-07-28T06:06:30;99797.22;;;19.19;100.00
26112;BME280;13829;48.990;8.346;2023-07-28T06:08:57;99798.84;;;19.23;100.00
26112;BME280;13829;48.990;8.346;2023-07-28T06:11:24;99800.09;;;19.14;100.00
26112;BME280;13829;48.990;8.346;2023-07-28T06:13:52;99792.41;;;19.06;100.00
26112;BME280;13829;48.990;8.346;2023-07-28T06:16:18;99795.78;;;19.10;100.00
26112;BME280;13829;48.990;8.346;2023-07-28T06:18:47;99785.09;;;19.12;100.00
26112;BME280;13829;48.990;8.346;2023-07-28T06:21:14;99782.22;;;19.16;100.00
26112;BME280;13829;48.990;8.346;2023-07-28T06:23:41;99784.94;;;19.15;100.00
26112;BME280;13829;48.990;8.346;2023-07-28T06:26:07;99790.41;;;19.12;100.00
26112;BME280;13829;48.990;8.346;2023-07-28T06:28:34;99795.44;;;19.19;100.00
26112;BME280;13829;48.990;8.346;2023-07-28T06:31:03;99793.53;;;19.23;100.00
26112;BME280;13829;48.990;8.346;2023-07-28T06:33:30;99800.31;;;19.30;100.00
26112;BME280;13829;48.990;8.346;2023-07-28T06:35:58;99802.19;;;19.28;100.00
26112;BME280;13829;48.990;8.346;2023-07-28T06:38:25;99799.78;;;19.22;100.00
26112;BME280;13829;48.990;8.346;2023-07-28T06:40:52;99803.78;;;19.32;100.00
26112;BME280;13829;48.990;8.346;2023-07-28T06:43:19;99797.28;;;19.39;100.00
26112;BME280;13829;48.990;8.346;2023-07-28T06:45:46;99808.50;;;19.48;100.00
26112;BME280;13829;48.990;8.346;2023-07-28T06:48:13;99810.38;;;19.46;100.00
26112;BME280;13829;48.990;8.346;2023-07-28T06:50:40;99810.22;;;19.49;100.00
26112;BME280;13829;48.990;8.346;2023-07-28T06:53:08;99822.56;;;19.51;100.00
26112;BME280;13829;48.990;8.346;2023-07-28T06:55:35;99812.56;;;19.56;100.00
26112;BME280;13829;48.990;8.346;2023-07-28T06:58:04;99825.47;;;19.67;100.00
26112;BME280;13829;48.990;8.346;2023-07-28T07:00:31;99826.22;;;19.71;100.00
26112;BME280;13829;48.990;8.346;2023-07-28T07:02:59;99826.22;;;19.71;100.00
26112;BME280;13829;48.990;8.346;2023-07-28T07:05:26;99819.38;;;19.86;100.00
26112;BME280;13829;48.990;8.346;2023-07-28T07:07:53;99826.25;;;19.92;100.00
26112;BME280;13829;48.990;8.346;2023-07-28T07:10:22;99825.00;;;20.00;100.00
26112;BME280;13829;48.990;8.346;2023-07-28T07:12:49;99825.66;;;20.06;100.00
26112;BME280;13829;48.990;8.346;2023-07-28T07:15:16;99830.06;;;20.07;100.00
26112;BME280;13829;48.990;8.346;2023-07-28T07:17:43;99839.69;;;20.11;100.00
26112;BME280;13829;48.990;8.346;2023-07-28T07:20:11;99836.66;;;20.18;100.00
26112;BME280;13829;48.990;8.346;2023-07-28T07:22:38;99838.72;;;20.32;100.00
26112;BME280;13829;48.990;8.346;2023-07-28T07:25:06;99842.25;;;20.33;100.00
26112;BME280;13829;48.990;8.346;2023-07-28T07:27:34;99841.00;;;20.21;100.00
26112;BME280;13829;48.990;8.346;2023-07-28T07:30:01;99851.00;;;20.36;100.00
26112;BME280;13829;48.990;8.346;2023-07-28T07:32:29;99851.88;;;20.37;100.00
26112;BME280;13829;48.990;8.346;2023-07-28T07:34:56;99857.88;;;20.42;100.00
26112;BME280;13829;48.990;8.346;2023-07-28T07:37:23;99853.03;;;20.50;100.00
26112;BME280;13829;48.990;8.346;2023-07-28T07:39:50;99859.53;;;20.45;100.00
26112;BME280;13829;48.990;8.346;2023-07-28T07:42:17;99863.97;;;20.46;100.00
26112;BME280;13829;48.990;8.346;2023-07-28T07:44:45;99864.63;;;20.51;100.00
26112;BME280;13829;48.990;8.346;2023-07-28T07:47:14;99873.13;;;20.59;100.00
26112;BME280;13829;48.990;8.346;2023-07-28T07:49:41;99876.00;;;20.54;100.00
26112;BME280;13829;48.990;8.346;2023-07-28T07:52:08;99873.41;;;20.53;100.00
26112;BME280;13829;48.990;8.346;2023-07-28T07:54:36;99871.41;;;20.58;100.00
26112;BME280;13829;48.990;8.346;2023-07-28T07:57:06;99871.41;;;20.58;100.00
26112;BME280;13829;48.990;8.346;2023-07-28T07:59:33;99865.28;;;20.56;100.00
26112;BME280;13829;48.990;8.346;2023-07-28T08:02:01;99868.84;;;20.76;100.00
26112;BME280;13829;48.990;8.346;2023-07-28T08:04:29;99875.75;;;21.00;100.00
26112;BME280;13829;48.990;8.346;2023-07-28T08:06:57;99873.34;;;21.32;100.00
26112;BME280;13829;48.990;8.346;2023-07-28T08:09:24;99874.44;;;21.84;100.00
26112;BME280;13829;48.990;8.346;2023-07-28T08:11:51;99874.41;;;22.19;100.00
26112;BME280;13829;48.990;8.346;2023-07-28T08:14:18;99875.06;;;22.42;100.00
26112;BME280;13829;48.990;8.346;2023-07-28T08:16:46;99880.38;;;22.59;100.00
26112;BME280;13829;48.990;8.346;2023-07-28T08:19:14;99884.47;;;22.67;100.00
26112;BME280;13829;48.990;8.346;2023-07-28T08:21:41;99884.59;;;22.81;100.00
26112;BME280;13829;48.990;8.346;2023-07-28T08:24:08;99893.66;;;23.12;100.00
26112;BME280;13829;48.990;8.346;2023-07-28T08:26:35;99898.59;;;23.36;100.00
26112;BME280;13829;48.990;8.346;2023-07-28T08:29:02;99898.09;;;23.45;100.00
26112;BME280;13829;48.990;8.346;2023-07-28T08:31:29;99895.31;;;23.63;100.00
26112;BME280;13829;48.990;8.346;2023-07-28T08:33:55;99891.03;;;23.74;100.00
26112;BME280;13829;48.990;8.346;2023-07-28T08:36:24;99890.94;;;23.76;100.00
26112;BME280;13829;48.990;8.346;2023-07-28T08:38:52;99897.22;;;23.60;100.00
26112;BME280;13829;48.990;8.346;2023-07-28T08:41:20;99900.34;;;23.21;100.00
26112;BME280;13829;48.990;8.346;2023-07-28T08:43:46;99901.84;;;23.09;100.00
26112;BME280;13829;48.990;8.346;2023-07-28T08:46:13;99894.22;;;22.85;100.00
26112;BME280;13829;48.990;8.346;2023-07-28T08:48:40;99894.16;;;22.69;100.00
26112;BME280;13829;48.990;8.346;2023-07-28T08:51:09;99888.63;;;22.72;100.00
26112;BME280;13829;48.990;8.346;2023-07-28T08:53:39;99890.13;;;23.27;100.00
26112;BME280;13829;48.990;8.346;2023-07-28T08:56:06;99888.03;;;23.65;100.00
26112;BME280;13829;48.990;8.346;2023-07-28T08:58:33;99897.34;;;23.89;99.69
26112;BME280;13829;48.990;8.346;2023-07-28T09:01:00;99892.25;;;24.01;95.52
26112;BME280;13829;48.990;8.346;2023-07-28T09:03:29;99888.63;;;24.16;97.65
26112;BME280;13829;48.990;8.346;2023-07-28T09:06:00;99890.47;;;24.30;94.49
26112;BME280;13829;48.990;8.346;2023-07-28T09:08:30;99895.88;;;24.45;95.27
26112;BME280;13829;48.990;8.346;2023-07-28T09:11:03;99887.28;;;24.68;92.05
26112;BME280;13829;48.990;8.346;2023-07-28T09:13:37;99893.91;;;25.06;90.64
26112;BME280;13829;48.990;8.346;2023-07-28T09:16:05;99896.19;;;25.27;88.58
26112;BME280;13829;48.990;8.346;2023-07-28T09:18:32;99897.91;;;25.42;88.52
26112;BME280;13829;48.990;8.346;2023-07-28T09:20:59;99895.19;;;25.42;85.72
26112;BME280;13829;48.990;8.346;2023-07-28T09:23:30;99897.84;;;25.15;83.82
26112;BME280;13829;48.990;8.346;2023-07-28T09:26:01;99901.59;;;25.12;84.95
26112;BME280;13829;48.990;8.346;2023-07-28T09:28:37;99901.19;;;25.18;85.30
26112;BME280;13829;48.990;8.346;2023-07-28T09:31:05;99898.50;;;25.18;82.76
26112;BME280;13829;48.990;8.346;2023-07-28T09:33:36;99898.84;;;25.41;83.26
26112;BME280;13829;48.990;8.346;2023-07-28T09:36:09;99892.91;;;25.36;83.32
26112;BME280;13829;48.990;8.346;2023-07-28T09:38:39;99889.63;;;25.31;80.31
26112;BME280;13829;48.990;8.346;2023-07-28T09:41:10;99878.50;;;25.37;85.58
26112;BME280;13829;48.990;8.346;2023-07-28T09:43:37;99895.78;;;25.33;82.30
26112;BME280;13829;48.990;8.346;2023-07-28T09:46:07;99889.16;;;25.24;83.81
26112;BME280;13829;48.990;8.346;2023-07-28T09:48:37;99889.25;;;25.37;85.77
26112;BME280;13829;48.990;8.346;2023-07-28T09:51:12;99894.13;;;25.45;82.96
26112;BME280;13829;48.990;8.346;2023-07-28T09:53:46;99891.59;;;25.56;82.38
26112;BME280;13829;48.990;8.346;2023-07-28T09:56:18;99887.69;;;25.47;81.10
26112;BME280;13829;48.990;8.346;2023-07-28T09:58:51;99899.66;;;25.29;79.79
26112;BME280;13829;48.990;8.346;2023-07-28T10:01:20;99897.28;;;25.10;80.20
26112;BME280;13829;48.990;8.346;2023-07-28T10:03:48;99901.41;;;25.01;79.25
26112;BME280;13829;48.990;8.346;2023-07-28T10:06:16;99898.72;;;24.86;79.46
26112;BME280;13829;48.990;8.346;2023-07-28T10:08:45;99900.22;;;24.62;81.89
26112;BME280;13829;48.990;8.346;2023-07-28T10:11:14;99896.53;;;24.34;83.77
26112;BME280;13829;48.990;8.346;2023-07-28T10:13:44;99909.91;;;24.19;86.54
26112;BME280;13829;48.990;8.346;2023-07-28T10:16:12;99913.88;;;23.98;86.35
26112;BME280;13829;48.990;8.346;2023-07-28T10:18:40;99904.22;;;23.79;89.91
26112;BME280;13829;48.990;8.346;2023-07-28T10:21:10;99908.34;;;23.85;88.03
26112;BME280;13829;48.990;8.346;2023-07-28T10:23:43;99904.81;;;23.84;89.17
26112;BME280;13829;48.990;8.346;2023-07-28T10:26:10;99905.47;;;24.04;89.90
26112;BME280;13829;48.990;8.346;2023-07-28T10:28:39;99896.53;;;24.34;87.64
26112;BME280;13829;48.990;8.346;2023-07-28T10:31:10;99909.81;;;24.51;87.83
26112;BME280;13829;48.990;8.346;2023-07-28T10:33:39;99915.56;;;24.59;83.68
26112;BME280;13829;48.990;8.346;2023-07-28T10:36:14;99915.91;;;24.69;82.22
26112;BME280;13829;48.990;8.346;2023-07-28T10:38:41;99916.22;;;24.79;84.32
26112;BME280;13829;48.990;8.346;2023-07-28T10:41:15;99918.59;;;24.84;82.80
26112;BME280;13829;48.990;8.346;2023-07-28T10:43:43;99912.25;;;24.85;80.81
26112;BME280;13829;48.990;8.346;2023-07-28T10:46:16;99911.13;;;24.74;81.74
26112;BME280;13829;48.990;8.346;2023-07-28T10:48:46;99908.69;;;24.99;83.68
26112;BME280;13829;48.990;8.346;2023-07-28T10:51:21;99921.88;;;25.03;81.31
26112;BME280;13829;48.990;8.346;2023-07-28T10:53:51;99917.94;;;24.95;81.28
26112;BME280;13829;48.990;8.346;2023-07-28T10:56:18;99911.78;;;25.07;82.09
26112;BME280;13829;48.990;8.346;2023-07-28T10:58:45;99917.06;;;24.94;80.69
26112;BME280;13829;48.990;8.346;2023-07-28T11:01:14;99915.22;;;24.80;80.16
26112;BME280;13829;48.990;8.346;2023-07-28T11:03:42;99915.56;;;24.59;81.68
26112;BME280;13829;48.990;8.346;2023-07-28T11:06:09;99912.41;;;24.53;82.98
26112;BME280;13829;48.990;8.346;2023-07-28T11:08:36;99913.84;;;24.44;85.22
26112;BME280;13829;48.990;8.346;2023-07-28T11:11:05;99917.09;;;24.49;85.64
26112;BME280;13829;48.990;8.346;2023-07-28T11:13:32;99914.19;;;24.38;85.70
26112;BME280;13829;48.990;8.346;2023-07-28T11:16:00;99911.31;;;24.41;85.37
26112;BME280;13829;48.990;8.346;2023-07-28T11:18:29;99920.53;;;24.37;86.30
26112;BME280;13829;48.990;8.346;2023-07-28T11:20:56;99916.88;;;24.38;85.40
26112;BME280;13829;48.990;8.346;2023-07-28T11:23:23;99912.78;;;24.47;87.18
26112;BME280;13829;48.990;8.346;2023-07-28T11:25:50;99912.31;;;24.54;88.06
26112;BME280;13829;48.990;8.346;2023-07-28T11:28:19;99918.88;;;24.65;85.09
26112;BME280;13829;48.990;8.346;2023-07-28T11:30:46;99932.06;;;24.53;85.29
26112;BME280;13829;48.990;8.346;2023-07-28T11:33:13;99936.47;;;24.40;87.41
26112;BME280;13829;48.990;8.346;2023-07-28T11:35:44;99935.50;;;24.41;92.48
26112;BME280;13829;48.990;8.346;2023-07-28T11:38:14;99942.50;;;24.29;92.37
26112;BME280;13829;48.990;8.346;2023-07-28T11:40:41;99942.81;;;24.08;95.88
26112;BME280;13829;48.990;8.346;2023-07-28T11:43:09;99936.84;;;23.87;98.18
26112;BME280;13829;48.990;8.346;2023-07-28T11:45:36;99937.22;;;23.65;100.00
26112;BME280;13829;48.990;8.346;2023-07-28T11:48:05;99936.88;;;23.55;100.00
26112;BME280;13829;48.990;8.346;2023-07-28T11:50:36;99943.25;;;23.37;100.00
26112;BME280;13829;48.990;8.346;2023-07-28T11:53:06;99932.59;;;23.19;100.00
26112;BME280;13829;48.990;8.346;2023-07-28T11:55:34;99940.50;;;23.22;100.00
26112;BME280;13829;48.990;8.346;2023-07-28T11:58:03;99933.47;;;23.36;100.00
26112;BME280;13829;48.990;8.346;2023-07-28T12:00:32;99927.19;;;23.53;100.00
26112;BME280;13829;48.990;8.346;2023-07-28T12:03:04;99930.47;;;23.74;100.00
26112;BME280;13829;48.990;8.346;2023-07-28T12:05:32;99930.47;;;23.74;100.00
26112;BME280;13829;48.990;8.346;2023-07-28T12:08:00;99918.16;;;23.70;100.00
26112;BME280;13829;48.990;8.346;2023-07-28T12:10:30;99917.16;;;23.56;100.00
26112;BME280;13829;48.990;8.346;2023-07-28T12:13:03;99922.25;;;23.45;100.00
26112;BME280;13829;48.990;8.346;2023-07-28T12:15:32;99929.16;;;23.33;100.00
26112;BME280;13829;48.990;8.346;2023-07-28T12:18:07;99923.31;;;23.09;100.00
26112;BME280;13829;48.990;8.346;2023-07-28T12:20:36;99937.72;;;22.90;100.00
26112;BME280;13829;48.990;8.346;2023-07-28T12:23:04;99934.59;;;22.82;100.00
26112;BME280;13829;48.990;8.346;2023-07-28T12:25:33;99935.53;;;22.81;100.00
26112;BME280;13829;48.990;8.346;2023-07-28T12:28:00;99936.19;;;22.69;100.00
26112;BME280;13829;48.990;8.346;2023-07-28T12:30:27;99938.22;;;22.63;100.00
26112;BME280;13829;48.990;8.346;2023-07-28T12:32:54;99940.47;;;22.38;100.00
26112;BME280;13829;48.990;8.346;2023-07-28T12:35:22;99941.56;;;22.34;100.00
26112;BME280;13829;48.990;8.346;2023-07-28T12:37:50;99943.91;;;22.22;100.00
26112;BME280;13829;48.990;8.346;2023-07-28T12:40:18;99948.88;;;22.30;100.00
26112;BME280;13829;48.990;8.346;2023-07-28T12:42:47;99948.25;;;22.25;100.00
26112;BME280;13829;48.990;8.346;2023-07-28T12:45:15;99945.97;;;22.17;100.00
26112;BME280;13829;48.990;8.346;2023-07-28T12:47:42;99948.00;;;22.12;100.00
26112;BME280;13829;48.990;8.346;2023-07-28T12:50:10;99945.38;;;22.10;100.00
26112;BME280;13829;48.990;8.346;2023-07-28T12:52:37;99943.41;;;21.96;100.00
26112;BME280;13829;48.990;8.346;2023-07-28T12:55:05;99949.25;;;22.05;100.00
26112;BME280;13829;48.990;8.346;2023-07-28T12:57:32;99959.78;;;21.90;100.00